Details for Delta Airlines at KJFK




Go Back


Latest METAR
Local Time

KJFK 232351Z 11004KT 2 1/2SM BR BKN006 OVC011 04/04 A3033 RMK AO2 SFC VIS 4 RAE2255B17E39 SLP270 P0006 60007 T00390039 10044 20039 58025

23/02/2018, 19:05:52

Description
Results
Delta Airlines Logo
Number of Pilots based at KJFK
0 Pilots Based here
Number of Delta Airlines Flights Departed from KJFK
1 Flights Departed
Number of Delta Airlines Flights Arrived at KJFK
1 Flights Arrived
Number of Delta Airlines Schedules Departing from KJFK
609 Schedules
Number of Delta Airlines Schedules Arriving at KJFK
520 Schedules
Number of Delta Airlines Schedules Departing from KJFK availible today
254 Schedules Today
Number of Delta Airlines Schedules Arriving at KJFK availible today
246 Schedules Today
Average Landing Rate at KJFK
-232 fpm
Delta Airlines Average Landing Rate at KJFK
-75 fpm
Total Fuel Purchased at KJFK by Delta Airlines
5,766.07 kgs / 12,711.88 lbs

Pilots Based at KJFK


Pilot ID
Pilot Name
Pilot Rank
No. of Flights
No. of Flying Hours
There are no pilots assigned to this hub!   Will you be the first?
Content